Time;durP1;ratioP1;P1;durP2;ratioP2;P2;SDS_P1;SDS_P2;PMS_P1;PMS_P2;Temp;Humidity;BMP_temperature;BMP_pressure;BME280_temperature;BME280_humidity;BME280_pressure;Samples;Min_cycle;Max_cycle;Signal;HPM_P1;HPM_P2
2021/10/21 00:01:39;;;;;;;0.90;0.90;;;20.60;70.20;;;;;;5102658;28;20764;-35
2021/10/21 00:04:05;;;;;;;0.80;0.80;;;20.60;70.10;;;;;;5102819;28;20111;-35
2021/10/21 00:06:32;;;;;;;0.95;0.85;;;20.60;70.20;;;;;;5104867;28;20162;-35
2021/10/21 00:08:58;;;;;;;0.93;0.90;;;20.60;70.20;;;;;;5106611;28;20024;-35
2021/10/21 00:11:24;;;;;;;1.20;1.00;;;20.60;70.20;;;;;;5106678;28;20054;-35
2021/10/21 00:13:50;;;;;;;1.00;0.90;;;20.60;70.20;;;;;;5106247;28;20084;-35
2021/10/21 00:16:16;;;;;;;0.93;0.88;;;20.60;70.20;;;;;;5103703;28;20024;-36
2021/10/21 00:18:43;;;;;;;1.27;0.80;;;20.60;70.20;;;;;;5105981;28;20049;-35
2021/10/21 00:21:09;;;;;;;1.65;0.95;;;20.60;70.10;;;;;;5106444;28;20377;-36
2021/10/21 00:23:35;;;;;;;1.10;0.90;;;20.60;70.20;;;;;;5105044;28;20028;-36
2021/10/21 00:26:06;;;;;;;1.30;1.05;;;20.60;70.20;;;;;;5106024;28;20028;-35
2021/10/21 00:28:36;;;;;;;1.25;1.00;;;20.60;70.20;;;;;;5106275;28;20092;-36
2021/10/21 00:31:03;;;;;;;1.15;1.00;;;20.60;70.30;;;;;;5104559;28;20042;-35
2021/10/21 00:33:29;;;;;;;1.00;0.90;;;20.60;70.30;;;;;;5106332;28;20020;-35
2021/10/21 00:35:55;;;;;;;0.80;0.80;;;20.60;70.30;;;;;;5105937;28;20024;-36
2021/10/21 00:38:21;;;;;;;1.00;0.90;;;20.60;70.20;;;;;;5106243;28;20066;-35
2021/10/21 00:40:47;;;;;;;1.67;0.98;;;20.60;70.10;;;;;;5102532;28;20028;-35
2021/10/21 00:43:14;;;;;;;1.38;1.20;;;20.60;70.00;;;;;;5085996;28;20028;-35
2021/10/21 00:45:40;;;;;;;1.27;1.17;;;20.60;70.00;;;;;;5085265;28;20107;-35
2021/10/21 00:48:06;;;;;;;1.10;0.98;;;20.50;70.00;;;;;;5100134;28;20115;-35
2021/10/21 00:50:32;;;;;;;1.35;1.00;;;20.50;70.00;;;;;;5105819;28;20036;-35
2021/10/21 00:52:59;;;;;;;1.55;1.10;;;20.50;69.90;;;;;;5104425;28;20020;-36
2021/10/21 00:55:26;;;;;;;1.10;1.00;;;20.50;69.90;;;;;;5104234;28;20024;-36
2021/10/21 00:57:52;;;;;;;1.70;1.20;;;20.50;70.00;;;;;;5105975;28;20086;-36
2021/10/21 01:00:18;;;;;;;2.42;1.27;;;20.50;70.00;;;;;;5104284;28;20032;-35
2021/10/21 01:02:44;;;;;;;1.00;0.90;;;20.50;69.90;;;;;;5105661;28;20031;-35
2021/10/21 01:05:11;;;;;;;1.13;0.98;;;20.50;69.80;;;;;;5105558;28;20559;-36
2021/10/21 01:07:37;;;;;;;1.45;1.15;;;20.50;69.70;;;;;;5105389;28;20071;-36
2021/10/21 01:10:07;;;;;;;1.30;1.20;;;20.50;69.60;;;;;;5105437;28;20031;-35
2021/10/21 01:12:34;;;;;;;1.00;0.90;;;20.50;69.50;;;;;;5105215;28;20032;-36
2021/10/21 01:15:23;;;;;;;1.70;1.30;;;20.50;69.50;;;;;;5105378;28;20040;-35
2021/10/21 01:17:49;;;;;;;1.38;1.17;;;20.40;69.20;;;;;;5104766;28;20028;-36
2021/10/21 01:20:16;;;;;;;1.60;1.38;;;20.40;69.30;;;;;;5104148;28;20565;-35
2021/10/21 01:22:42;;;;;;;1.45;1.20;;;20.40;69.20;;;;;;5105428;28;20028;-35
2021/10/21 01:25:09;;;;;;;1.02;1.00;;;20.40;69.30;;;;;;5105002;28;20032;-35
2021/10/21 01:27:35;;;;;;;1.60;1.10;;;20.40;69.20;;;;;;5103695;28;20083;-35
2021/10/21 01:30:01;;;;;;;1.38;1.10;;;20.40;69.30;;;;;;5105182;28;20088;-35
2021/10/21 01:32:34;;;;;;;1.30;1.20;;;20.40;69.20;;;;;;5105016;28;20030;-36
2021/10/21 01:35:03;;;;;;;1.50;1.20;;;20.40;69.30;;;;;;5104927;28;20028;-36
2021/10/21 01:37:32;;;;;;;1.25;1.15;;;20.40;69.40;;;;;;5105127;28;20571;-36
2021/10/21 01:39:58;;;;;;;1.10;1.00;;;20.30;69.30;;;;;;5105005;28;20036;-35
2021/10/21 01:42:25;;;;;;;1.67;1.10;;;20.30;69.20;;;;;;5087827;28;20016;-36
2021/10/21 01:44:51;;;;;;;1.57;1.23;;;20.30;69.20;;;;;;5084699;28;20100;-35
2021/10/21 01:47:17;;;;;;;1.40;1.30;;;20.30;69.30;;;;;;5091774;28;20082;-36
2021/10/21 01:49:44;;;;;;;1.33;1.23;;;20.30;69.30;;;;;;5104899;28;20032;-35
2021/10/21 01:52:10;;;;;;;1.58;1.40;;;20.30;69.40;;;;;;5104654;28;20028;-36
2021/10/21 01:54:36;;;;;;;1.60;1.40;;;20.30;69.20;;;;;;5104543;28;20020;-36
2021/10/21 01:57:02;;;;;;;2.00;1.30;;;20.30;69.40;;;;;;5103039;28;20039;-36
2021/10/21 01:59:28;;;;;;;1.40;1.02;;;20.30;69.30;;;;;;5104741;28;20084;-36
2021/10/21 02:01:54;;;;;;;1.50;1.40;;;20.30;69.30;;;;;;5104241;28;20036;-36
2021/10/21 02:04:20;;;;;;;1.77;1.20;;;20.30;69.30;;;;;;5104611;28;20036;-36
2021/10/21 02:06:47;;;;;;;1.50;1.40;;;20.30;69.40;;;;;;5103970;28;20058;-36
2021/10/21 02:09:13;;;;;;;1.67;1.30;;;20.20;69.30;;;;;;5104547;28;20075;-36
2021/10/21 02:11:39;;;;;;;1.58;1.35;;;20.20;69.30;;;;;;5104188;28;20036;-36
2021/10/21 02:14:05;;;;;;;1.23;1.02;;;20.20;69.50;;;;;;5104333;28;20048;-36
2021/10/21 02:16:31;;;;;;;2.17;1.58;;;20.20;69.40;;;;;;5103969;28;20088;-35
2021/10/21 02:18:57;;;;;;;1.42;1.33;;;20.20;69.40;;;;;;5103926;28;20024;-36
2021/10/21 02:21:23;;;;;;;3.83;1.50;;;20.20;69.60;;;;;;5101941;28;20032;-36
2021/10/21 02:23:50;;;;;;;1.27;1.15;;;20.20;70.20;;;;;;5103992;28;20050;-36
2021/10/21 02:26:16;;;;;;;1.30;1.20;;;20.20;69.50;;;;;;5103823;28;20031;-36
2021/10/21 02:28:43;;;;;;;1.13;1.02;;;20.10;69.50;;;;;;5103387;28;20024;-36
2021/10/21 02:31:09;;;;;;;1.60;1.20;;;20.10;69.50;;;;;;5094937;28;20062;-36
2021/10/21 02:33:35;;;;;;;1.58;1.30;;;20.10;69.50;;;;;;5083789;28;20052;-36
2021/10/21 02:36:01;;;;;;;1.52;1.30;;;20.10;69.50;;;;;;5083418;28;20029;-35
2021/10/21 02:38:27;;;;;;;1.50;1.40;;;20.10;69.50;;;;;;5083837;28;20028;-36
2021/10/21 02:40:55;;;;;;;1.50;1.40;;;20.10;69.40;;;;;;5087683;28;20139;-35
2021/10/21 02:43:21;;;;;;;1.30;1.20;;;20.10;69.60;;;;;;5103907;28;20067;-36
2021/10/21 02:45:47;;;;;;;1.35;1.20;;;20.00;69.60;;;;;;5103788;28;20086;-36
2021/10/21 02:48:13;;;;;;;1.98;1.42;;;20.00;69.60;;;;;;5088063;28;20047;-35
2021/10/21 02:50:40;;;;;;;1.75;1.30;;;20.00;69.60;;;;;;5083417;28;20063;-35
2021/10/21 02:53:06;;;;;;;1.55;1.05;;;20.00;69.60;;;;;;5083200;28;20055;-36
2021/10/21 02:55:32;;;;;;;1.20;1.10;;;20.00;69.70;;;;;;5083262;28;20086;-36
2021/10/21 02:57:58;;;;;;;1.45;1.27;;;20.00;69.70;;;;;;5083118;28;20124;-35
2021/10/21 03:00:24;;;;;;;2.60;1.52;;;20.00;69.70;;;;;;5083226;28;20028;-35
2021/10/21 03:02:51;;;;;;;1.40;1.30;;;20.00;70.50;;;;;;5083250;28;20092;-36
2021/10/21 03:05:17;;;;;;;1.75;1.65;;;20.00;69.80;;;;;;5083278;28;20052;-36
2021/10/21 03:07:43;;;;;;;1.52;1.42;;;20.00;69.80;;;;;;5081527;28;20098;-36
2021/10/21 03:10:10;;;;;;;1.73;1.50;;;20.00;69.80;;;;;;5083145;28;20028;-36
2021/10/21 03:12:36;;;;;;;1.40;1.25;;;19.90;69.80;;;;;;5081796;28;20037;-36
2021/10/21 03:15:02;;;;;;;1.42;1.27;;;19.90;69.80;;;;;;5083182;28;20031;-35
2021/10/21 03:17:28;;;;;;;1.70;1.50;;;19.90;69.80;;;;;;5090700;28;20069;-36
2021/10/21 03:19:54;;;;;;;1.55;1.45;;;19.90;69.80;;;;;;5103495;28;20024;-36
2021/10/21 03:22:21;;;;;;;2.58;1.73;;;19.90;69.80;;;;;;5103032;28;20024;-36
2021/10/21 03:24:47;;;;;;;2.40;1.60;;;19.90;69.80;;;;;;5103486;28;20082;-35
2021/10/21 03:27:13;;;;;;;1.50;1.40;;;19.90;70.00;;;;;;5102737;28;20029;-35
2021/10/21 03:29:39;;;;;;;1.40;1.30;;;19.80;69.90;;;;;;5103081;28;20389;-36
2021/10/21 03:32:05;;;;;;;1.48;1.33;;;19.80;70.00;;;;;;5102913;28;20091;-36
2021/10/21 03:34:33;;;;;;;2.00;1.63;;;19.80;70.00;;;;;;5103181;28;20020;-36
2021/10/21 03:36:59;;;;;;;1.55;1.40;;;19.80;70.00;;;;;;5102932;28;20042;-36
2021/10/21 03:39:25;;;;;;;1.40;1.30;;;19.80;70.00;;;;;;5103320;28;20016;-36
2021/10/21 03:41:52;;;;;;;1.90;1.70;;;19.80;70.00;;;;;;5106862;28;20042;-36
2021/10/21 03:44:18;;;;;;;1.80;1.60;;;19.80;70.10;;;;;;5107099;28;20043;-35
2021/10/21 03:46:44;;;;;;;2.47;1.83;;;19.80;70.10;;;;;;5106801;28;20035;-36
2021/10/21 03:49:10;;;;;;;2.92;1.55;;;19.80;70.10;;;;;;5106735;28;20123;-35
2021/10/21 03:51:36;;;;;;;2.13;1.83;;;19.70;70.10;;;;;;5106929;28;20036;-36
2021/10/21 03:54:02;;;;;;;2.65;1.60;;;19.70;70.00;;;;;;5107197;28;20664;-36
2021/10/21 03:56:28;;;;;;;2.63;1.40;;;19.70;70.10;;;;;;5106821;28;20050;-36
2021/10/21 03:58:54;;;;;;;1.85;1.40;;;19.70;70.10;;;;;;5106486;28;20087;-35
2021/10/21 04:01:21;;;;;;;1.80;1.40;;;19.70;70.20;;;;;;5106893;28;20043;-36
2021/10/21 04:03:47;;;;;;;1.52;1.42;;;19.70;70.20;;;;;;5106832;28;20882;-36
2021/10/21 04:06:13;;;;;;;1.80;1.70;;;19.70;70.20;;;;;;5106628;28;20023;-36
2021/10/21 04:08:39;;;;;;;1.83;1.60;;;19.70;70.20;;;;;;5106618;28;20035;-36
2021/10/21 04:11:05;;;;;;;1.52;1.42;;;19.70;70.30;;;;;;5106071;28;20024;-36
2021/10/21 04:13:32;;;;;;;3.75;1.80;;;19.70;70.30;;;;;;5105197;28;20042;-35
2021/10/21 04:15:58;;;;;;;1.45;1.35;;;19.60;70.30;;;;;;5106792;28;20076;-36
2021/10/21 04:18:24;;;;;;;2.08;1.50;;;19.60;70.30;;;;;;5106019;28;20026;-36
2021/10/21 04:20:50;;;;;;;2.00;1.80;;;19.60;70.30;;;;;;5106467;28;20528;-35
2021/10/21 04:23:16;;;;;;;1.80;1.70;;;19.60;70.30;;;;;;5106447;28;20020;-35
2021/10/21 04:25:42;;;;;;;1.65;1.52;;;19.60;70.30;;;;;;5106287;28;20606;-36
2021/10/21 04:28:08;;;;;;;1.92;1.80;;;19.60;70.40;;;;;;5106038;28;20056;-36
2021/10/21 04:30:35;;;;;;;2.83;1.73;;;19.60;70.40;;;;;;5106372;28;20036;-36
2021/10/21 04:33:01;;;;;;;2.00;1.60;;;19.60;70.40;;;;;;5106208;28;20077;-35
2021/10/21 04:35:27;;;;;;;1.60;1.50;;;19.60;70.40;;;;;;5106265;28;20050;-36
2021/10/21 04:37:53;;;;;;;1.52;1.42;;;19.60;70.40;;;;;;5105965;28;20031;-36
2021/10/21 04:40:19;;;;;;;1.60;1.50;;;19.50;70.50;;;;;;5095675;28;20074;-36
2021/10/21 04:42:45;;;;;;;1.90;1.80;;;19.50;70.50;;;;;;5085887;28;20029;-35
2021/10/21 04:45:11;;;;;;;2.10;1.90;;;19.50;70.50;;;;;;5085701;28;20036;-36
2021/10/21 04:47:37;;;;;;;1.90;1.70;;;19.50;70.60;;;;;;5085287;28;20025;-36
2021/10/21 04:50:04;;;;;;;2.15;1.90;;;19.50;70.50;;;;;;5085463;28;20060;-36
2021/10/21 04:52:30;;;;;;;2.22;1.75;;;19.50;70.50;;;;;;5084862;28;21160;-36
2021/10/21 04:54:57;;;;;;;1.83;1.70;;;19.40;70.50;;;;;;5085767;28;20031;-36
2021/10/21 04:57:23;;;;;;;2.05;1.80;;;19.40;70.60;;;;;;5085342;28;20058;-36
2021/10/21 04:59:49;;;;;;;1.90;1.70;;;19.40;70.60;;;;;;5085279;28;20023;-36
2021/10/21 05:02:15;;;;;;;2.58;1.75;;;19.40;70.60;;;;;;5085338;28;20024;-36
2021/10/21 05:04:41;;;;;;;4.13;1.90;;;19.40;70.60;;;;;;5085382;28;20021;-36
2021/10/21 05:07:07;;;;;;;2.47;1.70;;;19.40;70.70;;;;;;5085174;28;20052;-35
2021/10/21 05:09:33;;;;;;;2.92;2.10;;;19.40;70.70;;;;;;5089118;28;20025;-36
2021/10/21 05:11:59;;;;;;;1.80;1.70;;;19.40;70.80;;;;;;5105370;28;20047;-36
2021/10/21 05:14:26;;;;;;;2.10;1.90;;;19.40;70.80;;;;;;5105491;28;20024;-35
2021/10/21 05:16:52;;;;;;;2.20;2.00;;;19.40;70.80;;;;;;5105111;28;20628;-36
2021/10/21 05:19:18;;;;;;;2.00;1.58;;;19.40;70.80;;;;;;5105170;28;20084;-35
2021/10/21 05:21:44;;;;;;;3.15;1.70;;;19.30;70.70;;;;;;5105403;28;20023;-35
2021/10/21 05:24:10;;;;;;;1.90;1.70;;;19.30;70.70;;;;;;5105191;28;20024;-36
2021/10/21 05:26:36;;;;;;;1.83;1.63;;;19.30;70.80;;;;;;5105047;28;20050;-36
2021/10/21 05:29:03;;;;;;;2.15;1.90;;;19.30;70.80;;;;;;5104938;28;20036;-35
2021/10/21 05:31:29;;;;;;;1.92;1.83;;;19.30;70.90;;;;;;5104698;28;20044;-36
2021/10/21 05:33:55;;;;;;;4.57;2.20;;;19.30;70.90;;;;;;5105080;28;20031;-35
2021/10/21 05:36:21;;;;;;;2.30;2.08;;;19.30;70.90;;;;;;5105006;28;20532;-35
2021/10/21 05:38:48;;;;;;;2.20;2.00;;;19.30;71.00;;;;;;5104823;28;20051;-35
2021/10/21 05:41:14;;;;;;;3.13;2.00;;;19.30;71.00;;;;;;5104721;28;20031;-36
2021/10/21 05:43:40;;;;;;;2.65;1.80;;;19.20;70.90;;;;;;5104686;28;20036;-35
2021/10/21 05:46:06;;;;;;;2.20;2.00;;;19.20;71.00;;;;;;5104861;28;20070;-35
2021/10/21 05:48:33;;;;;;;3.33;2.25;;;19.20;71.00;;;;;;5104445;28;20035;-36
2021/10/21 05:51:00;;;;;;;2.05;1.85;;;19.20;71.00;;;;;;5104432;28;20113;-35
2021/10/21 05:53:26;;;;;;;;;;;19.20;71.10;;;;;;5085082;28;20686;-36
2021/10/21 05:55:53;;;;;;;2.40;2.20;;;19.20;71.10;;;;;;5084222;28;19915;-36
2021/10/21 05:58:19;;;;;;;2.55;2.10;;;19.20;71.10;;;;;;5084360;28;20449;-35
2021/10/21 06:00:45;;;;;;;2.08;1.95;;;19.20;71.20;;;;;;5090079;28;20031;-35
2021/10/21 06:03:11;;;;;;;2.33;2.10;;;19.20;71.10;;;;;;5104441;28;20113;-36
2021/10/21 06:05:38;;;;;;;2.28;2.08;;;19.20;71.20;;;;;;5103072;28;20027;-36
2021/10/21 06:08:04;;;;;;;2.42;2.17;;;19.10;71.20;;;;;;5104254;28;20058;-36
2021/10/21 06:10:30;;;;;;;2.73;2.00;;;19.10;71.20;;;;;;5091903;28;20036;-35
2021/10/21 06:12:58;;;;;;;2.05;1.95;;;19.10;71.20;;;;;;5083923;28;20025;-35
2021/10/21 06:15:26;;;;;;;2.75;2.00;;;19.10;71.20;;;;;;5084012;28;20031;-35
2021/10/21 06:17:54;;;;;;;2.30;2.10;;;19.10;71.30;;;;;;5083742;28;20581;-36
2021/10/21 06:20:20;;;;;;;2.42;2.22;;;19.10;71.20;;;;;;5084881;28;20029;-36
2021/10/21 06:22:46;;;;;;;2.63;2.42;;;19.10;71.30;;;;;;5102456;28;20028;-35
2021/10/21 06:25:13;;;;;;;2.28;2.05;;;19.00;71.30;;;;;;5104040;28;20024;-36
2021/10/21 06:27:39;;;;;;;2.15;1.88;;;19.00;71.30;;;;;;5104063;28;20035;-35
2021/10/21 06:30:06;;;;;;;2.17;1.98;;;19.00;71.40;;;;;;5103768;28;20046;-36
2021/10/21 06:32:33;;;;;;;2.63;2.42;;;19.10;71.40;;;;;;5102541;28;20571;-36
2021/10/21 06:34:59;;;;;;;2.35;2.15;;;19.00;71.40;;;;;;5102727;28;20039;-36
2021/10/21 06:37:25;;;;;;;2.35;2.15;;;19.00;71.40;;;;;;5103876;28;20366;-35
2021/10/21 06:39:54;;;;;;;2.47;2.28;;;19.00;71.50;;;;;;5103352;28;20032;-35
2021/10/21 06:42:23;;;;;;;2.22;2.03;;;19.00;71.50;;;;;;5103423;28;20024;-36
2021/10/21 06:44:50;;;;;;;2.72;2.47;;;19.00;71.50;;;;;;5102617;28;20031;-35
2021/10/21 06:47:16;;;;;;;2.47;2.28;;;19.00;71.50;;;;;;5103165;28;20019;-36
2021/10/21 06:49:42;;;;;;;2.58;2.38;;;19.00;71.50;;;;;;5102224;28;20129;-35
2021/10/21 06:52:09;;;;;;;2.28;2.08;;;19.00;71.50;;;;;;5103759;28;20062;-36
2021/10/21 06:54:35;;;;;;;2.42;2.22;;;18.90;71.50;;;;;;5103497;28;20024;-36
2021/10/21 06:57:01;;;;;;;2.85;2.55;;;18.90;71.60;;;;;;5103635;28;20538;-35
2021/10/21 06:59:27;;;;;;;2.75;2.25;;;18.90;71.60;;;;;;5103362;28;20056;-36
2021/10/21 07:01:53;;;;;;;2.63;2.22;;;18.90;71.60;;;;;;5103408;28;20047;-36
2021/10/21 07:04:21;;;;;;;2.90;2.50;;;18.90;71.60;;;;;;5103587;28;20027;-35
2021/10/21 07:06:47;;;;;;;3.90;2.60;;;18.90;71.60;;;;;;5103300;28;20044;-36
2021/10/21 07:09:13;;;;;;;2.88;2.38;;;18.90;71.70;;;;;;5103329;28;20076;-36
2021/10/21 07:11:40;;;;;;;2.75;2.50;;;18.90;71.70;;;;;;5103082;28;20051;-36
2021/10/21 07:14:06;;;;;;;2.47;2.28;;;18.90;71.80;;;;;;5103408;28;20035;-36
2021/10/21 07:16:32;;;;;;;3.22;2.50;;;18.90;71.80;;;;;;5103310;28;20036;-35
2021/10/21 07:18:58;;;;;;;3.20;2.47;;;18.90;71.80;;;;;;5103196;28;20027;-35
2021/10/21 07:21:24;;;;;;;2.67;2.38;;;18.90;71.80;;;;;;5103248;28;20028;-35
2021/10/21 07:23:51;;;;;;;3.53;2.58;;;18.90;71.80;;;;;;5103347;28;20049;-36
2021/10/21 07:26:17;;;;;;;3.05;2.30;;;18.80;71.70;;;;;;5103181;28;20024;-35
2021/10/21 07:28:43;;;;;;;2.53;2.33;;;18.80;71.90;;;;;;5103270;28;20056;-36
2021/10/21 07:31:14;;;;;;;2.58;2.38;;;18.80;71.80;;;;;;5102902;28;20043;-35
2021/10/21 07:33:40;;;;;;;2.70;2.40;;;18.80;71.90;;;;;;5103186;28;20016;-36
2021/10/21 07:36:06;;;;;;;2.67;2.17;;;18.80;71.90;;;;;;5102036;28;20478;-36
2021/10/21 07:38:32;;;;;;;2.95;2.65;;;18.80;71.90;;;;;;5103080;28;20098;-35
2021/10/21 07:40:58;;;;;;;2.30;2.10;;;18.80;71.90;;;;;;5102706;28;20028;-36
2021/10/21 07:43:25;;;;;;;3.00;2.55;;;18.80;71.90;;;;;;5103052;28;20017;-36
2021/10/21 07:45:51;;;;;;;2.95;2.53;;;18.80;72.00;;;;;;5103115;28;20096;-36
2021/10/21 07:48:17;;;;;;;2.70;2.25;;;18.70;71.90;;;;;;5086522;28;20023;-36
2021/10/21 07:50:45;;;;;;;1.80;1.67;;;18.70;72.10;;;;;;5082628;28;20115;-36
2021/10/21 07:53:11;;;;;;;2.75;2.40;;;18.70;72.00;;;;;;5082722;28;20084;-35
2021/10/21 07:55:38;;;;;;;2.57;2.37;;;18.70;72.00;;;;;;5082980;28;20025;-36
2021/10/21 07:58:05;;;;;;;2.83;2.60;;;18.70;72.00;;;;;;5081339;28;20035;-36
2021/10/21 08:00:32;;;;;;;3.35;2.85;;;18.70;72.10;;;;;;5084467;28;20035;-36
2021/10/21 08:02:59;;;;;;;;;;;18.70;72.10;;;;;;5103270;28;20029;-36
2021/10/21 08:05:26;;;;;;;2.80;2.47;;;18.70;72.10;;;;;;5102898;28;19904;-35
2021/10/21 08:07:52;;;;;;;2.08;1.98;;;18.70;72.10;;;;;;5102658;28;20048;-35
2021/10/21 08:10:19;;;;;;;2.92;2.40;;;18.70;72.20;;;;;;5103039;28;20435;-36
2021/10/21 08:12:46;;;;;;;2.70;2.50;;;18.60;72.10;;;;;;5101209;28;20091;-36
2021/10/21 08:15:12;;;;;;;2.67;2.42;;;18.60;72.10;;;;;;5103066;28;20066;-35
2021/10/21 08:17:39;;;;;;;2.30;2.10;;;18.60;72.20;;;;;;5102628;28;20043;-35
2021/10/21 08:20:06;;;;;;;4.57;2.53;;;18.60;72.10;;;;;;5102722;28;20036;-35
2021/10/21 08:22:32;;;;;;;2.53;2.33;;;18.60;72.20;;;;;;5102665;28;20039;-36
2021/10/21 08:24:59;;;;;;;3.28;2.70;;;18.60;72.30;;;;;;5102902;28;20088;-36
2021/10/21 08:27:25;;;;;;;2.58;2.33;;;18.60;72.20;;;;;;5101749;28;20029;-36
2021/10/21 08:29:52;;;;;;;2.50;2.30;;;18.60;72.30;;;;;;5105078;28;20442;-36
2021/10/21 08:32:19;;;;;;;3.05;2.38;;;18.60;72.30;;;;;;5106029;28;20024;-36
2021/10/21 08:34:45;;;;;;;3.17;2.40;;;18.60;72.30;;;;;;5106368;28;20095;-35
2021/10/21 08:37:11;;;;;;;2.90;2.40;;;18.50;72.30;;;;;;5106121;28;20038;-36
2021/10/21 08:39:42;;;;;;;3.53;2.53;;;18.50;72.30;;;;;;5106265;28;20054;-38
2021/10/21 08:42:10;;;;;;;2.97;2.70;;;18.50;72.30;;;;;;5104555;28;20092;-35
2021/10/21 08:44:40;;;;;;;2.70;2.50;;;18.50;72.30;;;;;;5106015;28;20091;-35
2021/10/21 08:47:07;;;;;;;2.60;2.40;;;18.50;72.30;;;;;;5100795;28;20035;-36
2021/10/21 08:49:34;;;;;;;3.53;2.50;;;18.50;72.40;;;;;;5085701;28;20050;-36
2021/10/21 08:52:00;;;;;;;3.00;2.53;;;18.50;72.30;;;;;;5084058;28;20044;-36
2021/10/21 08:54:26;;;;;;;2.85;2.60;;;18.50;72.40;;;;;;5086003;28;20028;-36
2021/10/21 08:56:52;;;;;;;2.97;2.58;;;18.50;72.50;;;;;;5085573;28;20036;-35
2021/10/21 08:59:19;;;;;;;3.30;2.58;;;18.50;72.50;;;;;;5085621;28;20089;-35
2021/10/21 09:01:48;;;;;;;2.33;1.80;;;18.50;72.40;;;;;;5099048;28;20063;-35
2021/10/21 09:09:23;;;;;;;3.22;2.30;;;18.50;72.50;;;;;;5105683;28;20028;-35
2021/10/21 09:12:22;;;;;;;2.83;2.60;;;18.40;72.50;;;;;;5104016;28;20039;-35
2021/10/21 09:14:49;;;;;;;2.50;2.30;;;18.40;72.60;;;;;;5022920;28;20042;-35
2021/10/21 09:17:17;;;;;;;3.08;2.78;;;18.40;72.60;;;;;;5022571;28;20036;-35
2021/10/21 09:19:44;;;;;;;4.18;2.53;;;18.40;72.60;;;;;;5023029;28;20026;-36
2021/10/21 09:22:24;;;;;;;3.17;2.53;;;18.40;72.70;;;;;;5022583;28;20037;-36
2021/10/21 09:24:50;;;;;;;2.63;2.42;;;18.40;72.70;;;;;;5022723;28;20046;-36
2021/10/21 09:27:17;;;;;;;2.70;2.50;;;18.40;72.60;;;;;;5022427;28;20022;-35
2021/10/21 09:29:48;;;;;;;2.75;2.40;;;18.40;72.70;;;;;;5022569;28;20057;-36
2021/10/21 09:32:16;;;;;;;3.40;2.85;;;18.40;72.70;;;;;;5005694;28;20081;-36
2021/10/21 09:34:51;;;;;;;2.80;2.50;;;18.40;72.70;;;;;;5022698;28;20030;-35
2021/10/21 09:37:33;;;;;;;2.55;2.17;;;18.40;72.80;;;;;;5022241;28;20038;-36
2021/10/21 09:40:08;;;;;;;2.47;2.28;;;18.30;72.60;;;;;;5022453;28;20069;-36
2021/10/21 09:42:36;;;;;;;3.85;2.67;;;18.30;72.60;;;;;;5021647;28;20561;-36
2021/10/21 09:45:14;;;;;;;2.58;2.33;;;18.30;72.70;;;;;;5022358;28;20072;-35
2021/10/21 09:47:53;;;;;;;2.67;2.47;;;18.30;72.70;;;;;;5022108;28;20026;-36
2021/10/21 09:50:31;;;;;;;3.38;2.75;;;18.30;72.80;;;;;;5061574;28;20408;-36
2021/10/21 09:53:20;;;;;;;2.53;2.33;;;18.30;72.80;;;;;;5104550;28;20028;-36
2021/10/21 09:55:55;;;;;;;2.47;2.28;;;18.30;72.80;;;;;;5103357;28;20042;-36
2021/10/21 09:58:25;;;;;;;2.38;2.17;;;18.30;72.80;;;;;;5103230;28;20028;-36
2021/10/21 10:00:52;;;;;;;2.67;2.47;;;18.30;72.80;;;;;;5104103;28;20027;-35
2021/10/21 10:03:30;;;;;;;2.88;2.60;;;18.30;72.90;;;;;;5103057;28;20031;-35
2021/10/21 10:05:57;;;;;;;2.58;2.38;;;18.30;72.90;;;;;;5103371;28;20043;-35
2021/10/21 10:08:24;;;;;;;3.10;2.50;;;18.20;72.80;;;;;;5103004;28;20060;-36
2021/10/21 10:10:55;;;;;;;2.42;2.22;;;18.20;72.90;;;;;;5104304;28;20040;-36
2021/10/21 10:13:21;;;;;;;2.90;2.58;;;18.20;72.90;;;;;;5104204;28;20028;-35
2021/10/21 10:15:48;;;;;;;2.90;2.50;;;18.20;72.90;;;;;;5104363;28;20032;-35
2021/10/21 10:18:16;;;;;;;2.50;2.30;;;18.20;73.00;;;;;;5104119;28;20029;-36
2021/10/21 10:20:51;;;;;;;2.70;2.35;;;18.20;72.90;;;;;;5101830;28;20040;-36
2021/10/21 10:23:17;;;;;;;2.60;2.33;;;18.20;73.00;;;;;;5086694;28;20027;-36
2021/10/21 10:25:47;;;;;;;2.58;2.38;;;18.20;73.00;;;;;;5103980;28;20081;-39
2021/10/21 10:28:14;;;;;;;3.65;2.42;;;18.20;73.00;;;;;;5099484;28;20032;-35
2021/10/21 10:30:41;;;;;;;3.00;2.78;;;18.20;73.00;;;;;;5102420;28;20035;-36
2021/10/21 10:33:07;;;;;;;2.95;2.55;;;18.20;73.00;;;;;;5103617;28;20032;-36
2021/10/21 10:35:35;;;;;;;2.70;2.50;;;18.10;73.70;;;;;;5098447;28;20460;-35
2021/10/21 10:38:02;;;;;;;3.08;2.40;;;18.20;73.00;;;;;;5083569;28;20024;-36
2021/10/21 10:40:38;;;;;;;2.70;2.35;;;18.10;73.00;;;;;;5083379;28;20025;-35
2021/10/21 10:43:04;;;;;;;2.70;2.50;;;18.10;73.00;;;;;;5083145;28;20024;-36
2021/10/21 10:45:43;;;;;;;2.53;2.33;;;18.10;73.10;;;;;;5083543;28;20027;-35
2021/10/21 10:48:09;;;;;;;3.08;2.45;;;18.10;73.00;;;;;;5097220;28;20024;-36
2021/10/21 10:50:42;;;;;;;2.63;2.42;;;18.10;73.10;;;;;;5102999;28;20039;-36
2021/10/21 10:53:08;;;;;;;3.00;2.70;;;18.10;73.20;;;;;;5103306;28;20032;-36
2021/10/21 10:55:39;;;;;;;1.77;1.67;;;18.10;73.20;;;;;;5103576;28;20020;-36
2021/10/21 10:58:14;;;;;;;3.22;2.40;;;18.10;73.20;;;;;;5103310;28;20299;-35
2021/10/21 11:00:47;;;;;;;2.53;2.33;;;18.10;73.20;;;;;;5102372;28;20020;-35
2021/10/21 11:03:32;;;;;;;2.70;2.50;;;18.10;73.20;;;;;;5102959;28;20028;-35
2021/10/21 11:06:17;;;;;;;2.30;2.10;;;18.10;73.10;;;;;;5102322;28;20039;-36
2021/10/21 11:11:58;;;;;;;2.60;2.25;;;18.10;73.20;;;;;;5103095;28;20028;-36
2021/10/21 11:14:31;;;;;;;2.30;2.10;;;18.10;73.30;;;;;;5081866;28;20058;-36
2021/10/21 11:16:57;;;;;;;2.78;2.47;;;18.00;73.20;;;;;;5083288;28;20043;-36
2021/10/21 11:19:43;;;;;;;2.70;2.47;;;18.00;73.20;;;;;;5081836;28;20044;-36
2021/10/21 11:22:10;;;;;;;2.45;2.25;;;18.00;73.20;;;;;;5082824;28;20034;-36
2021/10/21 11:27:27;;;;;;;;;;;18.00;73.30;;;;;;5083273;28;20027;-36
2021/10/21 11:29:53;;;;;;;2.28;2.08;;;18.00;73.30;;;;;;5082909;28;20365;-36
2021/10/21 11:32:20;;;;;;;2.45;2.25;;;18.00;73.30;;;;;;5101457;28;20043;-36
2021/10/21 11:34:50;;;;;;;2.85;2.22;;;18.00;73.30;;;;;;5103082;28;20020;-36
2021/10/21 11:37:43;;;;;;;2.70;2.20;;;18.00;73.40;;;;;;5103323;28;20024;-36
2021/10/21 11:40:12;;;;;;;2.40;2.20;;;18.00;73.40;;;;;;5101788;28;20384;-36
2021/10/21 11:42:38;;;;;;;2.28;2.08;;;18.00;73.40;;;;;;5102458;28;20028;-36
2021/10/21 11:45:09;;;;;;;1.90;1.75;;;18.00;74.10;;;;;;5103110;28;20020;-36
2021/10/21 11:47:37;;;;;;;2.45;2.25;;;18.00;73.40;;;;;;5101746;28;20031;-36
2021/10/21 11:50:05;;;;;;;2.60;2.10;;;18.00;73.40;;;;;;5101848;28;20020;-36
2021/10/21 11:52:42;;;;;;;3.42;2.03;;;18.00;73.40;;;;;;5102699;28;20032;-36
2021/10/21 11:55:18;;;;;;;2.42;1.92;;;18.00;73.40;;;;;;5101589;28;20536;-36
2021/10/21 11:57:44;;;;;;;3.78;2.35;;;18.00;73.40;;;;;;5102903;28;20471;-36
2021/10/21 12:00:21;;;;;;;2.58;2.38;;;17.90;73.40;;;;;;5102821;28;20027;-36
2021/10/21 12:02:52;;;;;;;2.50;2.30;;;17.90;73.40;;;;;;5106665;28;20039;-36
2021/10/21 12:05:27;;;;;;;2.17;1.98;;;17.90;73.40;;;;;;5106899;28;20039;-36
2021/10/21 12:07:53;;;;;;;2.47;2.15;;;17.90;73.40;;;;;;5105045;28;20078;-36
2021/10/21 12:10:41;;;;;;;2.20;1.70;;;17.90;73.40;;;;;;5106333;28;20112;-36
2021/10/21 12:13:07;;;;;;;2.30;2.10;;;17.90;73.50;;;;;;5093730;28;20269;-36
2021/10/21 12:15:37;;;;;;;4.25;2.40;;;17.90;73.50;;;;;;5086281;28;20115;-36
2021/10/21 12:18:07;;;;;;;2.53;2.33;;;17.90;73.60;;;;;;5086255;28;20041;-36
2021/10/21 12:20:49;;;;;;;2.78;2.25;;;17.90;73.50;;;;;;5086206;28;20028;-35
2021/10/21 12:23:24;;;;;;;2.55;2.00;;;17.90;73.50;;;;;;5085662;28;20032;-36
2021/10/21 12:25:52;;;;;;;2.30;2.10;;;17.90;73.50;;;;;;5086023;28;20025;-36
2021/10/21 12:28:18;;;;;;;;;;;17.90;73.60;;;;;;5086505;28;20436;-36
2021/10/21 12:30:44;;;;;;;2.20;1.92;;;17.90;73.60;;;;;;5090054;28;19912;-36
2021/10/21 12:33:16;;;;;;;2.40;2.20;;;17.90;73.60;;;;;;5104762;28;20020;-36
2021/10/21 12:36:05;;;;;;;2.40;2.08;;;17.90;73.60;;;;;;5103588;28;20043;-36
2021/10/21 12:38:33;;;;;;;2.55;1.77;;;17.90;73.60;;;;;;5106047;28;20539;-36
2021/10/21 12:41:04;;;;;;;2.53;2.05;;;17.90;73.60;;;;;;5067892;28;20540;-36
2021/10/21 12:43:30;;;;;;;2.50;2.30;;;17.90;73.60;;;;;;5085579;28;20084;-36
2021/10/21 12:46:01;;;;;;;2.53;2.25;;;17.90;73.70;;;;;;5085837;28;20058;-36
2021/10/21 12:48:34;;;;;;;2.83;2.08;;;17.90;73.60;;;;;;5085822;28;20413;-36
2021/10/21 12:51:12;;;;;;;2.30;2.10;;;17.90;73.70;;;;;;5085761;28;20048;-36
2021/10/21 12:53:39;;;;;;;2.25;1.98;;;17.90;73.60;;;;;;5085419;28;20028;-36
2021/10/21 12:56:12;;;;;;;;;;;17.80;73.50;;;;;;5085907;28;20058;-36
2021/10/21 12:58:38;;;;;;;2.50;2.00;;;17.90;73.70;;;;;;5084293;28;20321;-36
2021/10/21 13:01:04;;;;;;;2.10;1.90;;;17.80;73.60;;;;;;5088884;28;20035;-36
2021/10/21 13:03:39;;;;;;;2.05;1.85;;;17.80;73.60;;;;;;5085259;28;20087;-36